aviador You're here:

KNMM Decoded Metar

MERIDIAN in MS, USA
Report Time2017-11-24 10:56:00
UTC Time2017-11-24 11:17:50
Flight Rules vfr VFR
WindCalm
Visibility9999 m
Phenomena:N/A
Clouds:N/A
Expected CloudBase > 400 ft AGL from Temp-Dew spread
CeilingNone
Temp-2°C (ISA -16)
Dew Point-3°C (93% RH)
AAT-4.4°C
QNH1017 hPa
Density Alt-1,759 ft
Elevation318 ft
Report Wrong Elevation
Raw Report
KNMM 241056Z AUTO 00000KT 10SM CLR M02/M03 A3004 RMK AO2 SLP184
T10171033 $=

Extra information for KNMM:More info

Metar Taf Metar & Taf Last 4 Metars F.Rules Stats Wind Profile Meteogram Temp Stats Airport Information Weather charts Add Link Nearby VenuesMetar ALERT Operation Metar Decoded Social comments

AIRNAV info for KNMM